Main page
METAR-TAF:

METAR-TAF

Airports :

St. Gallen–Altenrhein Airport

St. Gallen, Switzerland

latitude: 47-29-06N, longitude: 009-33-43E, elevation: 398 m

Current weather observation

The report was made 19 minutes ago, at 17:50 UTC
Wind 2 kt from variable directions
Temperature 19°C
Humidity 68%
Pressure 1012 hPa
Visibility 10 km or more
Few clouds at a height of 8500 ft

METAR: LSZR 141750Z VRB02KT 9999 FEW085 19/13 Q1012 RMK O

Time: 20:09 (18:09 UTC)

Forecast

The report was made 3 hours and 44 minutes ago, at 14:25 UTC
Forecast valid from 14 at 15 UTC to 14 at 24 UTC
Wind 2 kt from variable directions
Visibility 10 km or more
Few clouds at a height of 5000 ft
Broken clouds at a height of 7000 ft
Probability 40% :
Temporary
from 14 at 15 UTC to 14 at 17 UTC
Wind 10 kt from the West

TAF: LSZR 141425Z 1415/1424 VRB02KT 9999 FEW050 BKN070 PROB40 TEMPO 1415/1417 28010KT

Weather observations and forecasts of more than 4000 airports (METAR and TAF reports).

The available stations are represented by yellow and red dots on the map.

Hover mouse over dot to see the name of the station.

Then click to see weather observations and forecasts.

To change the map : click on the green buttons with a black cross to zoom in, on the green button with a dash to zoom out, or on the green arrows for adjacent maps.


METAR-TAF: